sensor_id;sensor_type;location;lat;lon;timestamp;P1;durP1;ratioP1;P2;durP2;ratioP2
12433;SDS011;6281;49.038;8.372;2023-08-06T00:00:50;2.27;;;1.80;;
12433;SDS011;6281;49.038;8.372;2023-08-06T00:03:17;2.20;;;2.00;;
12433;SDS011;6281;49.038;8.372;2023-08-06T00:05:44;3.70;;;2.13;;
12433;SDS011;6281;49.038;8.372;2023-08-06T00:08:11;2.07;;;1.60;;
12433;SDS011;6281;49.038;8.372;2023-08-06T00:10:40;1.87;;;1.63;;
12433;SDS011;6281;49.038;8.372;2023-08-06T00:13:07;2.20;;;1.60;;
12433;SDS011;6281;49.038;8.372;2023-08-06T00:15:34;2.33;;;1.87;;
12433;SDS011;6281;49.038;8.372;2023-08-06T00:18:01;2.00;;;1.63;;
12433;SDS011;6281;49.038;8.372;2023-08-06T00:20:28;3.03;;;1.87;;
12433;SDS011;6281;49.038;8.372;2023-08-06T00:22:55;1.90;;;1.70;;
12433;SDS011;6281;49.038;8.372;2023-08-06T00:25:22;3.53;;;1.93;;
12433;SDS011;6281;49.038;8.372;2023-08-06T00:27:50;2.90;;;1.77;;
12433;SDS011;6281;49.038;8.372;2023-08-06T00:30:17;1.83;;;1.63;;
12433;SDS011;6281;49.038;8.372;2023-08-06T00:32:44;2.27;;;1.97;;
12433;SDS011;6281;49.038;8.372;2023-08-06T00:35:11;2.10;;;1.90;;
12433;SDS011;6281;49.038;8.372;2023-08-06T00:37:38;2.47;;;2.00;;
12433;SDS011;6281;49.038;8.372;2023-08-06T00:40:06;3.43;;;2.30;;
12433;SDS011;6281;49.038;8.372;2023-08-06T00:42:33;2.53;;;2.20;;
12433;SDS011;6281;49.038;8.372;2023-08-06T00:45:02;2.30;;;2.10;;
12433;SDS011;6281;49.038;8.372;2023-08-06T00:47:29;2.60;;;1.90;;
12433;SDS011;6281;49.038;8.372;2023-08-06T00:49:57;2.63;;;1.90;;
12433;SDS011;6281;49.038;8.372;2023-08-06T00:52:24;1.77;;;1.63;;
12433;SDS011;6281;49.038;8.372;2023-08-06T00:54:51;2.30;;;1.73;;
12433;SDS011;6281;49.038;8.372;2023-08-06T00:57:18;2.17;;;1.83;;
12433;SDS011;6281;49.038;8.372;2023-08-06T00:59:49;2.53;;;2.10;;
12433;SDS011;6281;49.038;8.372;2023-08-06T01:02:17;2.33;;;1.97;;
12433;SDS011;6281;49.038;8.372;2023-08-06T01:04:44;2.03;;;1.60;;
12433;SDS011;6281;49.038;8.372;2023-08-06T01:07:13;2.27;;;1.90;;
12433;SDS011;6281;49.038;8.372;2023-08-06T01:09:50;2.50;;;2.00;;
12433;SDS011;6281;49.038;8.372;2023-08-06T01:15:23;1.80;;;1.53;;
12433;SDS011;6281;49.038;8.372;2023-08-06T01:22:12;2.43;;;1.83;;
12433;SDS011;6281;49.038;8.372;2023-08-06T01:27:16;2.30;;;2.10;;
12433;SDS011;6281;49.038;8.372;2023-08-06T01:29:52;1.93;;;1.53;;
12433;SDS011;6281;49.038;8.372;2023-08-06T01:32:25;2.17;;;1.70;;
12433;SDS011;6281;49.038;8.372;2023-08-06T01:34:55;2.33;;;1.50;;
12433;SDS011;6281;49.038;8.372;2023-08-06T01:37:26;2.60;;;1.90;;
12433;SDS011;6281;49.038;8.372;2023-08-06T01:39:54;4.37;;;1.90;;
12433;SDS011;6281;49.038;8.372;2023-08-06T01:42:21;2.30;;;1.73;;
12433;SDS011;6281;49.038;8.372;2023-08-06T01:44:48;2.47;;;1.67;;
12433;SDS011;6281;49.038;8.372;2023-08-06T01:47:14;1.97;;;1.47;;
12433;SDS011;6281;49.038;8.372;2023-08-06T01:49:41;2.77;;;1.60;;
12433;SDS011;6281;49.038;8.372;2023-08-06T01:52:08;5.13;;;1.40;;
12433;SDS011;6281;49.038;8.372;2023-08-06T01:54:36;2.27;;;1.50;;
12433;SDS011;6281;49.038;8.372;2023-08-06T01:57:03;4.20;;;1.60;;
12433;SDS011;6281;49.038;8.372;2023-08-06T01:59:30;1.73;;;1.43;;
12433;SDS011;6281;49.038;8.372;2023-08-06T02:01:57;1.93;;;1.50;;
12433;SDS011;6281;49.038;8.372;2023-08-06T02:04:23;3.37;;;1.43;;
12433;SDS011;6281;49.038;8.372;2023-08-06T02:06:50;3.10;;;1.93;;
12433;SDS011;6281;49.038;8.372;2023-08-06T02:09:17;4.23;;;1.73;;
12433;SDS011;6281;49.038;8.372;2023-08-06T02:11:45;1.87;;;1.50;;
12433;SDS011;6281;49.038;8.372;2023-08-06T02:14:12;2.73;;;1.80;;
12433;SDS011;6281;49.038;8.372;2023-08-06T02:16:38;1.97;;;1.30;;
12433;SDS011;6281;49.038;8.372;2023-08-06T02:19:05;1.63;;;1.43;;
12433;SDS011;6281;49.038;8.372;2023-08-06T02:21:32;2.33;;;1.63;;
12433;SDS011;6281;49.038;8.372;2023-08-06T02:23:59;2.77;;;1.87;;
12433;SDS011;6281;49.038;8.372;2023-08-06T02:26:26;3.20;;;1.80;;
12433;SDS011;6281;49.038;8.372;2023-08-06T02:28:54;3.37;;;1.60;;
12433;SDS011;6281;49.038;8.372;2023-08-06T02:31:20;2.03;;;1.50;;
12433;SDS011;6281;49.038;8.372;2023-08-06T02:33:47;2.77;;;1.47;;
12433;SDS011;6281;49.038;8.372;2023-08-06T02:39:01;3.73;;;1.83;;
12433;SDS011;6281;49.038;8.372;2023-08-06T02:41:28;2.23;;;1.70;;
12433;SDS011;6281;49.038;8.372;2023-08-06T02:43:56;2.57;;;1.30;;
12433;SDS011;6281;49.038;8.372;2023-08-06T02:46:23;1.70;;;1.23;;
12433;SDS011;6281;49.038;8.372;2023-08-06T02:48:49;2.80;;;1.50;;
12433;SDS011;6281;49.038;8.372;2023-08-06T02:51:16;1.83;;;1.50;;
12433;SDS011;6281;49.038;8.372;2023-08-06T02:53:43;2.30;;;1.40;;
12433;SDS011;6281;49.038;8.372;2023-08-06T02:56:09;3.47;;;1.53;;
12433;SDS011;6281;49.038;8.372;2023-08-06T02:58:36;2.40;;;1.83;;
12433;SDS011;6281;49.038;8.372;2023-08-06T03:01:05;3.07;;;1.53;;
12433;SDS011;6281;49.038;8.372;2023-08-06T03:03:32;3.60;;;1.60;;
12433;SDS011;6281;49.038;8.372;2023-08-06T03:06:00;2.53;;;1.40;;
12433;SDS011;6281;49.038;8.372;2023-08-06T03:08:27;2.90;;;1.50;;
12433;SDS011;6281;49.038;8.372;2023-08-06T03:10:54;2.13;;;1.17;;
12433;SDS011;6281;49.038;8.372;2023-08-06T03:13:21;2.53;;;1.40;;
12433;SDS011;6281;49.038;8.372;2023-08-06T03:15:54;2.27;;;1.47;;
12433;SDS011;6281;49.038;8.372;2023-08-06T03:18:23;1.30;;;1.10;;
12433;SDS011;6281;49.038;8.372;2023-08-06T03:20:51;1.97;;;1.17;;
12433;SDS011;6281;49.038;8.372;2023-08-06T03:23:18;1.77;;;1.07;;
12433;SDS011;6281;49.038;8.372;2023-08-06T03:25:45;2.53;;;1.20;;
12433;SDS011;6281;49.038;8.372;2023-08-06T03:28:12;1.70;;;0.90;;
12433;SDS011;6281;49.038;8.372;2023-08-06T03:30:39;2.87;;;1.20;;
12433;SDS011;6281;49.038;8.372;2023-08-06T03:33:06;2.00;;;1.10;;
12433;SDS011;6281;49.038;8.372;2023-08-06T03:35:34;1.67;;;0.90;;
12433;SDS011;6281;49.038;8.372;2023-08-06T03:38:01;3.07;;;1.17;;
12433;SDS011;6281;49.038;8.372;2023-08-06T03:40:28;3.40;;;1.17;;
12433;SDS011;6281;49.038;8.372;2023-08-06T03:42:55;2.73;;;1.17;;
12433;SDS011;6281;49.038;8.372;2023-08-06T03:45:22;2.60;;;0.80;;
12433;SDS011;6281;49.038;8.372;2023-08-06T03:47:48;1.33;;;0.70;;
12433;SDS011;6281;49.038;8.372;2023-08-06T03:50:15;3.07;;;1.10;;
12433;SDS011;6281;49.038;8.372;2023-08-06T03:52:44;1.60;;;1.00;;
12433;SDS011;6281;49.038;8.372;2023-08-06T03:55:11;1.87;;;0.90;;
12433;SDS011;6281;49.038;8.372;2023-08-06T03:57:37;2.40;;;1.30;;
12433;SDS011;6281;49.038;8.372;2023-08-06T04:00:05;4.67;;;0.80;;
12433;SDS011;6281;49.038;8.372;2023-08-06T04:02:32;2.53;;;0.80;;
12433;SDS011;6281;49.038;8.372;2023-08-06T04:05:00;3.17;;;0.97;;
12433;SDS011;6281;49.038;8.372;2023-08-06T04:07:27;3.33;;;1.17;;
12433;SDS011;6281;49.038;8.372;2023-08-06T04:09:56;1.50;;;0.90;;
12433;SDS011;6281;49.038;8.372;2023-08-06T04:12:24;2.60;;;1.17;;
12433;SDS011;6281;49.038;8.372;2023-08-06T04:14:51;2.30;;;1.23;;
12433;SDS011;6281;49.038;8.372;2023-08-06T04:17:19;3.43;;;0.80;;
12433;SDS011;6281;49.038;8.372;2023-08-06T04:19:47;1.23;;;0.70;;
12433;SDS011;6281;49.038;8.372;2023-08-06T04:22:15;3.63;;;1.00;;
12433;SDS011;6281;49.038;8.372;2023-08-06T04:24:42;2.33;;;0.90;;
12433;SDS011;6281;49.038;8.372;2023-08-06T04:27:11;2.50;;;0.90;;
12433;SDS011;6281;49.038;8.372;2023-08-06T04:29:38;2.57;;;0.87;;
12433;SDS011;6281;49.038;8.372;2023-08-06T04:32:06;3.30;;;0.90;;
12433;SDS011;6281;49.038;8.372;2023-08-06T04:34:34;1.17;;;0.67;;
12433;SDS011;6281;49.038;8.372;2023-08-06T04:37:02;3.23;;;0.60;;
12433;SDS011;6281;49.038;8.372;2023-08-06T04:39:30;2.87;;;0.87;;
12433;SDS011;6281;49.038;8.372;2023-08-06T04:41:56;2.50;;;0.80;;
12433;SDS011;6281;49.038;8.372;2023-08-06T04:44:25;1.03;;;0.60;;
12433;SDS011;6281;49.038;8.372;2023-08-06T04:46:52;3.43;;;0.93;;
12433;SDS011;6281;49.038;8.372;2023-08-06T04:49:19;3.37;;;0.70;;
12433;SDS011;6281;49.038;8.372;2023-08-06T04:51:47;2.20;;;0.77;;
12433;SDS011;6281;49.038;8.372;2023-08-06T04:54:14;3.80;;;1.00;;
12433;SDS011;6281;49.038;8.372;2023-08-06T04:56:40;1.90;;;1.10;;
12433;SDS011;6281;49.038;8.372;2023-08-06T04:59:07;3.13;;;0.90;;
12433;SDS011;6281;49.038;8.372;2023-08-06T05:01:36;0.80;;;0.50;;
12433;SDS011;6281;49.038;8.372;2023-08-06T05:04:03;2.67;;;0.63;;
12433;SDS011;6281;49.038;8.372;2023-08-06T05:06:29;1.40;;;0.47;;
12433;SDS011;6281;49.038;8.372;2023-08-06T05:08:56;1.23;;;0.60;;
12433;SDS011;6281;49.038;8.372;2023-08-06T05:11:23;2.43;;;0.60;;
12433;SDS011;6281;49.038;8.372;2023-08-06T05:13:50;0.57;;;0.53;;
12433;SDS011;6281;49.038;8.372;2023-08-06T05:16:17;1.10;;;0.50;;
12433;SDS011;6281;49.038;8.372;2023-08-06T05:18:46;3.53;;;0.60;;
12433;SDS011;6281;49.038;8.372;2023-08-06T05:21:12;1.10;;;0.53;;
12433;SDS011;6281;49.038;8.372;2023-08-06T05:23:41;2.77;;;0.90;;
12433;SDS011;6281;49.038;8.372;2023-08-06T05:26:08;1.43;;;0.73;;
12433;SDS011;6281;49.038;8.372;2023-08-06T05:28:35;0.60;;;0.57;;
12433;SDS011;6281;49.038;8.372;2023-08-06T05:31:05;1.57;;;0.77;;
12433;SDS011;6281;49.038;8.372;2023-08-06T05:33:32;1.27;;;0.60;;
12433;SDS011;6281;49.038;8.372;2023-08-06T05:36:04;0.80;;;0.80;;
12433;SDS011;6281;49.038;8.372;2023-08-06T05:38:31;4.10;;;0.90;;
12433;SDS011;6281;49.038;8.372;2023-08-06T05:40:58;3.03;;;0.97;;
12433;SDS011;6281;49.038;8.372;2023-08-06T05:43:25;3.00;;;1.10;;
12433;SDS011;6281;49.038;8.372;2023-08-06T05:45:52;1.43;;;0.70;;
12433;SDS011;6281;49.038;8.372;2023-08-06T05:48:19;1.33;;;1.03;;
12433;SDS011;6281;49.038;8.372;2023-08-06T05:50:47;2.80;;;1.07;;
12433;SDS011;6281;49.038;8.372;2023-08-06T05:53:16;1.57;;;1.20;;
12433;SDS011;6281;49.038;8.372;2023-08-06T05:55:42;1.43;;;0.87;;
12433;SDS011;6281;49.038;8.372;2023-08-06T05:58:11;2.17;;;1.00;;
12433;SDS011;6281;49.038;8.372;2023-08-06T06:00:37;2.30;;;0.97;;
12433;SDS011;6281;49.038;8.372;2023-08-06T06:03:04;1.70;;;0.80;;
12433;SDS011;6281;49.038;8.372;2023-08-06T06:05:31;2.77;;;1.20;;
12433;SDS011;6281;49.038;8.372;2023-08-06T06:07:58;2.43;;;1.00;;
12433;SDS011;6281;49.038;8.372;2023-08-06T06:10:26;1.57;;;0.53;;
12433;SDS011;6281;49.038;8.372;2023-08-06T06:12:53;0.80;;;0.70;;
12433;SDS011;6281;49.038;8.372;2023-08-06T06:15:20;2.20;;;0.80;;
12433;SDS011;6281;49.038;8.372;2023-08-06T06:17:47;2.07;;;1.10;;
12433;SDS011;6281;49.038;8.372;2023-08-06T06:20:14;2.83;;;0.80;;
12433;SDS011;6281;49.038;8.372;2023-08-06T06:22:41;2.17;;;0.80;;
12433;SDS011;6281;49.038;8.372;2023-08-06T06:25:08;1.53;;;0.70;;
12433;SDS011;6281;49.038;8.372;2023-08-06T06:27:37;0.80;;;0.50;;
12433;SDS011;6281;49.038;8.372;2023-08-06T06:30:04;1.27;;;0.50;;
12433;SDS011;6281;49.038;8.372;2023-08-06T06:32:32;1.47;;;0.63;;
12433;SDS011;6281;49.038;8.372;2023-08-06T06:34:59;0.80;;;0.30;;
12433;SDS011;6281;49.038;8.372;2023-08-06T06:37:26;1.77;;;0.70;;
12433;SDS011;6281;49.038;8.372;2023-08-06T06:39:52;1.40;;;0.53;;
12433;SDS011;6281;49.038;8.372;2023-08-06T06:42:19;0.50;;;0.40;;
12433;SDS011;6281;49.038;8.372;2023-08-06T06:44:49;2.67;;;0.90;;
12433;SDS011;6281;49.038;8.372;2023-08-06T06:47:16;1.47;;;0.30;;
12433;SDS011;6281;49.038;8.372;2023-08-06T06:49:43;0.40;;;0.30;;
12433;SDS011;6281;49.038;8.372;2023-08-06T06:52:10;0.30;;;0.20;;
12433;SDS011;6281;49.038;8.372;2023-08-06T06:54:37;0.50;;;0.30;;
12433;SDS011;6281;49.038;8.372;2023-08-06T06:57:04;2.20;;;0.20;;
12433;SDS011;6281;49.038;8.372;2023-08-06T06:59:31;0.50;;;0.40;;
12433;SDS011;6281;49.038;8.372;2023-08-06T07:02:00;0.70;;;0.30;;
12433;SDS011;6281;49.038;8.372;2023-08-06T07:04:26;3.40;;;0.30;;
12433;SDS011;6281;49.038;8.372;2023-08-06T07:06:53;0.83;;;0.37;;
12433;SDS011;6281;49.038;8.372;2023-08-06T07:09:20;0.63;;;0.20;;
12433;SDS011;6281;49.038;8.372;2023-08-06T07:11:47;1.47;;;0.50;;
12433;SDS011;6281;49.038;8.372;2023-08-06T07:14:14;0.30;;;0.30;;
12433;SDS011;6281;49.038;8.372;2023-08-06T07:16:41;0.80;;;0.40;;
12433;SDS011;6281;49.038;8.372;2023-08-06T07:19:09;2.07;;;0.57;;
12433;SDS011;6281;49.038;8.372;2023-08-06T07:21:36;0.57;;;0.40;;
12433;SDS011;6281;49.038;8.372;2023-08-06T07:24:03;3.03;;;0.40;;
12433;SDS011;6281;49.038;8.372;2023-08-06T07:26:30;0.63;;;0.30;;
12433;SDS011;6281;49.038;8.372;2023-08-06T07:28:57;1.10;;;0.70;;
12433;SDS011;6281;49.038;8.372;2023-08-06T07:31:24;1.57;;;0.30;;
12433;SDS011;6281;49.038;8.372;2023-08-06T07:33:51;0.93;;;0.40;;
12433;SDS011;6281;49.038;8.372;2023-08-06T07:39:11;0.60;;;0.30;;
12433;SDS011;6281;49.038;8.372;2023-08-06T07:41:37;2.10;;;0.40;;
12433;SDS011;6281;49.038;8.372;2023-08-06T07:44:05;2.00;;;0.50;;
12433;SDS011;6281;49.038;8.372;2023-08-06T07:46:32;1.60;;;0.40;;
12433;SDS011;6281;49.038;8.372;2023-08-06T07:48:59;0.83;;;0.40;;
12433;SDS011;6281;49.038;8.372;2023-08-06T07:51:26;0.93;;;0.53;;
12433;SDS011;6281;49.038;8.372;2023-08-06T07:53:54;1.93;;;0.50;;
12433;SDS011;6281;49.038;8.372;2023-08-06T07:56:21;1.90;;;0.33;;
12433;SDS011;6281;49.038;8.372;2023-08-06T07:58:48;1.30;;;0.60;;
12433;SDS011;6281;49.038;8.372;2023-08-06T08:01:15;0.40;;;0.40;;
12433;SDS011;6281;49.038;8.372;2023-08-06T08:03:42;1.03;;;0.40;;
12433;SDS011;6281;49.038;8.372;2023-08-06T08:06:09;0.67;;;0.50;;
12433;SDS011;6281;49.038;8.372;2023-08-06T08:08:36;0.87;;;0.50;;
12433;SDS011;6281;49.038;8.372;2023-08-06T08:11:05;0.60;;;0.50;;
12433;SDS011;6281;49.038;8.372;2023-08-06T08:13:32;0.57;;;0.37;;
12433;SDS011;6281;49.038;8.372;2023-08-06T08:15:59;0.70;;;0.50;;
12433;SDS011;6281;49.038;8.372;2023-08-06T08:18:27;2.53;;;0.40;;
12433;SDS011;6281;49.038;8.372;2023-08-06T08:20:54;0.77;;;0.43;;
12433;SDS011;6281;49.038;8.372;2023-08-06T08:23:21;1.10;;;0.43;;
12433;SDS011;6281;49.038;8.372;2023-08-06T08:25:48;0.20;;;0.20;;
12433;SDS011;6281;49.038;8.372;2023-08-06T08:28:17;0.53;;;0.50;;
12433;SDS011;6281;49.038;8.372;2023-08-06T08:30:44;1.63;;;0.70;;
12433;SDS011;6281;49.038;8.372;2023-08-06T08:33:11;3.47;;;0.67;;
12433;SDS011;6281;49.038;8.372;2023-08-06T08:35:42;1.00;;;0.50;;
12433;SDS011;6281;49.038;8.372;2023-08-06T08:38:08;0.80;;;0.60;;
12433;SDS011;6281;49.038;8.372;2023-08-06T08:40:35;1.40;;;0.43;;
12433;SDS011;6281;49.038;8.372;2023-08-06T08:43:09;1.70;;;0.50;;
12433;SDS011;6281;49.038;8.372;2023-08-06T08:45:39;2.13;;;0.47;;
12433;SDS011;6281;49.038;8.372;2023-08-06T08:48:08;2.63;;;0.70;;
12433;SDS011;6281;49.038;8.372;2023-08-06T08:50:36;0.80;;;0.57;;
12433;SDS011;6281;49.038;8.372;2023-08-06T08:53:03;0.93;;;0.40;;
12433;SDS011;6281;49.038;8.372;2023-08-06T08:55:31;0.87;;;0.37;;
12433;SDS011;6281;49.038;8.372;2023-08-06T08:57:58;0.93;;;0.57;;
12433;SDS011;6281;49.038;8.372;2023-08-06T09:00:25;0.80;;;0.50;;
12433;SDS011;6281;49.038;8.372;2023-08-06T09:02:54;1.90;;;0.40;;
12433;SDS011;6281;49.038;8.372;2023-08-06T09:05:22;1.20;;;0.43;;
12433;SDS011;6281;49.038;8.372;2023-08-06T09:07:50;0.60;;;0.60;;
12433;SDS011;6281;49.038;8.372;2023-08-06T09:10:20;0.90;;;0.50;;
12433;SDS011;6281;49.038;8.372;2023-08-06T09:12:49;1.37;;;0.70;;
12433;SDS011;6281;49.038;8.372;2023-08-06T09:15:18;1.03;;;0.43;;
12433;SDS011;6281;49.038;8.372;2023-08-06T09:17:46;0.93;;;0.47;;
12433;SDS011;6281;49.038;8.372;2023-08-06T09:20:15;1.43;;;0.70;;
12433;SDS011;6281;49.038;8.372;2023-08-06T09:22:43;0.37;;;0.37;;
12433;SDS011;6281;49.038;8.372;2023-08-06T09:25:10;0.30;;;0.20;;
12433;SDS011;6281;49.038;8.372;2023-08-06T09:27:38;0.30;;;0.20;;
12433;SDS011;6281;49.038;8.372;2023-08-06T09:30:06;1.60;;;0.40;;
12433;SDS011;6281;49.038;8.372;2023-08-06T09:32:44;1.70;;;0.40;;
12433;SDS011;6281;49.038;8.372;2023-08-06T09:38:05;0.50;;;0.30;;
12433;SDS011;6281;49.038;8.372;2023-08-06T09:40:34;0.30;;;0.30;;
12433;SDS011;6281;49.038;8.372;2023-08-06T09:43:01;0.40;;;0.40;;
12433;SDS011;6281;49.038;8.372;2023-08-06T09:45:28;0.33;;;0.27;;
12433;SDS011;6281;49.038;8.372;2023-08-06T09:47:57;0.20;;;0.20;;
12433;SDS011;6281;49.038;8.372;2023-08-06T09:50:26;0.80;;;0.20;;
12433;SDS011;6281;49.038;8.372;2023-08-06T09:52:56;0.57;;;0.30;;
12433;SDS011;6281;49.038;8.372;2023-08-06T09:55:24;0.30;;;0.20;;
12433;SDS011;6281;49.038;8.372;2023-08-06T09:57:51;0.20;;;0.20;;
12433;SDS011;6281;49.038;8.372;2023-08-06T10:00:19;0.40;;;0.30;;
12433;SDS011;6281;49.038;8.372;2023-08-06T10:02:46;1.60;;;0.50;;
12433;SDS011;6281;49.038;8.372;2023-08-06T10:05:14;0.40;;;0.30;;
12433;SDS011;6281;49.038;8.372;2023-08-06T10:07:42;0.40;;;0.27;;
12433;SDS011;6281;49.038;8.372;2023-08-06T10:10:11;0.50;;;0.30;;
12433;SDS011;6281;49.038;8.372;2023-08-06T10:12:38;0.33;;;0.20;;
12433;SDS011;6281;49.038;8.372;2023-08-06T10:15:10;0.23;;;0.20;;
12433;SDS011;6281;49.038;8.372;2023-08-06T10:17:41;0.47;;;0.40;;
12433;SDS011;6281;49.038;8.372;2023-08-06T10:20:09;0.50;;;0.30;;
12433;SDS011;6281;49.038;8.372;2023-08-06T10:22:37;0.87;;;0.40;;
12433;SDS011;6281;49.038;8.372;2023-08-06T10:25:09;1.43;;;0.60;;
12433;SDS011;6281;49.038;8.372;2023-08-06T10:27:39;1.50;;;0.50;;
12433;SDS011;6281;49.038;8.372;2023-08-06T10:30:22;0.97;;;0.70;;
12433;SDS011;6281;49.038;8.372;2023-08-06T10:32:50;0.77;;;0.57;;
12433;SDS011;6281;49.038;8.372;2023-08-06T10:35:28;2.27;;;0.73;;
12433;SDS011;6281;49.038;8.372;2023-08-06T10:37:59;2.00;;;0.60;;
12433;SDS011;6281;49.038;8.372;2023-08-06T10:40:29;0.50;;;0.50;;
12433;SDS011;6281;49.038;8.372;2023-08-06T10:42:59;0.70;;;0.70;;
12433;SDS011;6281;49.038;8.372;2023-08-06T10:45:26;1.10;;;0.97;;
12433;SDS011;6281;49.038;8.372;2023-08-06T10:47:55;2.40;;;0.90;;
12433;SDS011;6281;49.038;8.372;2023-08-06T10:50:23;1.63;;;1.30;;
12433;SDS011;6281;49.038;8.372;2023-08-06T10:52:51;3.17;;;0.87;;
12433;SDS011;6281;49.038;8.372;2023-08-06T10:55:22;2.43;;;1.07;;
12433;SDS011;6281;49.038;8.372;2023-08-06T10:57:50;1.27;;;1.00;;
12433;SDS011;6281;49.038;8.372;2023-08-06T11:00:18;1.73;;;1.00;;
12433;SDS011;6281;49.038;8.372;2023-08-06T11:02:46;1.53;;;1.10;;
12433;SDS011;6281;49.038;8.372;2023-08-06T11:05:14;1.33;;;1.07;;
12433;SDS011;6281;49.038;8.372;2023-08-06T11:07:41;3.50;;;1.30;;
12433;SDS011;6281;49.038;8.372;2023-08-06T11:10:09;2.10;;;1.60;;
12433;SDS011;6281;49.038;8.372;2023-08-06T11:12:36;2.37;;;1.20;;
12433;SDS011;6281;49.038;8.372;2023-08-06T11:15:03;1.80;;;1.33;;
12433;SDS011;6281;49.038;8.372;2023-08-06T11:17:33;1.70;;;1.30;;
12433;SDS011;6281;49.038;8.372;2023-08-06T11:20:00;1.53;;;1.20;;
12433;SDS011;6281;49.038;8.372;2023-08-06T11:22:28;4.37;;;1.70;;
12433;SDS011;6281;49.038;8.372;2023-08-06T11:24:55;1.53;;;0.90;;
12433;SDS011;6281;49.038;8.372;2023-08-06T11:27:22;1.47;;;1.20;;
12433;SDS011;6281;49.038;8.372;2023-08-06T11:29:49;2.20;;;1.10;;
12433;SDS011;6281;49.038;8.372;2023-08-06T11:32:15;3.80;;;1.20;;
12433;SDS011;6281;49.038;8.372;2023-08-06T11:34:43;2.50;;;1.47;;
12433;SDS011;6281;49.038;8.372;2023-08-06T11:37:10;8.60;;;1.80;;
12433;SDS011;6281;49.038;8.372;2023-08-06T11:39:38;2.73;;;1.63;;
12433;SDS011;6281;49.038;8.372;2023-08-06T11:42:05;3.90;;;1.40;;
12433;SDS011;6281;49.038;8.372;2023-08-06T11:44:33;2.37;;;1.30;;
12433;SDS011;6281;49.038;8.372;2023-08-06T11:47:02;2.00;;;1.57;;
12433;SDS011;6281;49.038;8.372;2023-08-06T11:49:37;3.70;;;1.60;;
12433;SDS011;6281;49.038;8.372;2023-08-06T11:52:17;2.37;;;1.60;;
12433;SDS011;6281;49.038;8.372;2023-08-06T11:54:46;2.17;;;1.43;;
12433;SDS011;6281;49.038;8.372;2023-08-06T11:57:14;2.83;;;1.40;;
12433;SDS011;6281;49.038;8.372;2023-08-06T11:59:42;2.47;;;1.27;;
12433;SDS011;6281;49.038;8.372;2023-08-06T12:02:09;2.63;;;1.37;;
12433;SDS011;6281;49.038;8.372;2023-08-06T12:07:27;2.77;;;1.00;;
12433;SDS011;6281;49.038;8.372;2023-08-06T12:09:55;2.97;;;1.60;;
12433;SDS011;6281;49.038;8.372;2023-08-06T12:12:21;2.43;;;1.20;;
12433;SDS011;6281;49.038;8.372;2023-08-06T12:14:48;3.20;;;1.00;;
12433;SDS011;6281;49.038;8.372;2023-08-06T12:17:15;1.70;;;1.43;;
12433;SDS011;6281;49.038;8.372;2023-08-06T12:19:44;2.03;;;1.33;;
12433;SDS011;6281;49.038;8.372;2023-08-06T12:22:11;1.93;;;1.40;;
12433;SDS011;6281;49.038;8.372;2023-08-06T12:24:39;2.30;;;1.20;;
12433;SDS011;6281;49.038;8.372;2023-08-06T12:27:07;1.93;;;1.13;;
12433;SDS011;6281;49.038;8.372;2023-08-06T12:29:34;1.20;;;0.97;;
12433;SDS011;6281;49.038;8.372;2023-08-06T12:32:01;2.23;;;1.20;;
12433;SDS011;6281;49.038;8.372;2023-08-06T12:34:35;2.23;;;0.90;;
12433;SDS011;6281;49.038;8.372;2023-08-06T12:37:02;1.10;;;1.00;;
12433;SDS011;6281;49.038;8.372;2023-08-06T12:39:29;3.57;;;1.30;;
12433;SDS011;6281;49.038;8.372;2023-08-06T12:41:59;2.10;;;1.17;;
12433;SDS011;6281;49.038;8.372;2023-08-06T12:44:27;0.97;;;0.67;;
12433;SDS011;6281;49.038;8.372;2023-08-06T12:46:54;1.70;;;0.90;;
12433;SDS011;6281;49.038;8.372;2023-08-06T12:49:21;2.10;;;1.20;;
12433;SDS011;6281;49.038;8.372;2023-08-06T12:51:49;1.13;;;0.80;;
12433;SDS011;6281;49.038;8.372;2023-08-06T12:54:17;1.57;;;1.00;;
12433;SDS011;6281;49.038;8.372;2023-08-06T12:56:45;0.70;;;0.70;;
12433;SDS011;6281;49.038;8.372;2023-08-06T12:59:15;0.43;;;0.40;;
12433;SDS011;6281;49.038;8.372;2023-08-06T13:01:43;2.47;;;0.70;;
12433;SDS011;6281;49.038;8.372;2023-08-06T13:04:11;0.90;;;0.80;;
12433;SDS011;6281;49.038;8.372;2023-08-06T13:06:38;2.23;;;0.70;;
12433;SDS011;6281;49.038;8.372;2023-08-06T13:09:05;2.10;;;0.40;;
12433;SDS011;6281;49.038;8.372;2023-08-06T13:11:33;0.90;;;0.50;;
12433;SDS011;6281;49.038;8.372;2023-08-06T13:14:03;2.10;;;0.40;;
12433;SDS011;6281;49.038;8.372;2023-08-06T13:16:33;0.50;;;0.40;;
12433;SDS011;6281;49.038;8.372;2023-08-06T13:19:00;0.70;;;0.50;;
12433;SDS011;6281;49.038;8.372;2023-08-06T13:21:30;0.80;;;0.50;;
12433;SDS011;6281;49.038;8.372;2023-08-06T13:23:58;1.23;;;0.60;;
12433;SDS011;6281;49.038;8.372;2023-08-06T13:26:25;0.43;;;0.40;;
12433;SDS011;6281;49.038;8.372;2023-08-06T13:28:52;3.27;;;0.50;;
12433;SDS011;6281;49.038;8.372;2023-08-06T13:31:19;1.53;;;0.50;;
12433;SDS011;6281;49.038;8.372;2023-08-06T13:33:48;0.40;;;0.30;;
12433;SDS011;6281;49.038;8.372;2023-08-06T13:36:15;1.27;;;0.40;;
12433;SDS011;6281;49.038;8.372;2023-08-06T13:38:42;0.30;;;0.30;;
12433;SDS011;6281;49.038;8.372;2023-08-06T13:41:09;0.60;;;0.60;;
12433;SDS011;6281;49.038;8.372;2023-08-06T13:43:35;0.70;;;0.60;;
12433;SDS011;6281;49.038;8.372;2023-08-06T13:46:02;0.80;;;0.60;;
12433;SDS011;6281;49.038;8.372;2023-08-06T13:48:29;0.40;;;0.40;;
12433;SDS011;6281;49.038;8.372;2023-08-06T13:50:58;0.60;;;0.50;;
12433;SDS011;6281;49.038;8.372;2023-08-06T13:53:24;0.60;;;0.53;;
12433;SDS011;6281;49.038;8.372;2023-08-06T13:55:55;1.00;;;0.60;;
12433;SDS011;6281;49.038;8.372;2023-08-06T13:58:21;1.07;;;0.50;;
12433;SDS011;6281;49.038;8.372;2023-08-06T14:00:48;0.93;;;0.50;;
12433;SDS011;6281;49.038;8.372;2023-08-06T14:03:18;0.63;;;0.57;;
12433;SDS011;6281;49.038;8.372;2023-08-06T14:05:44;0.70;;;0.57;;
12433;SDS011;6281;49.038;8.372;2023-08-06T14:08:13;1.30;;;0.70;;
12433;SDS011;6281;49.038;8.372;2023-08-06T14:10:40;0.40;;;0.40;;
12433;SDS011;6281;49.038;8.372;2023-08-06T14:13:06;1.20;;;0.70;;
12433;SDS011;6281;49.038;8.372;2023-08-06T14:15:32;0.50;;;0.50;;
12433;SDS011;6281;49.038;8.372;2023-08-06T14:17:59;2.00;;;0.50;;
12433;SDS011;6281;49.038;8.372;2023-08-06T14:20:26;0.70;;;0.50;;
12433;SDS011;6281;49.038;8.372;2023-08-06T14:22:53;0.83;;;0.40;;
12433;SDS011;6281;49.038;8.372;2023-08-06T14:25:21;1.70;;;0.60;;
12433;SDS011;6281;49.038;8.372;2023-08-06T14:27:48;2.00;;;0.50;;
12433;SDS011;6281;49.038;8.372;2023-08-06T14:30:15;0.50;;;0.30;;
12433;SDS011;6281;49.038;8.372;2023-08-06T14:32:43;1.00;;;0.70;;
12433;SDS011;6281;49.038;8.372;2023-08-06T14:35:10;1.47;;;0.70;;
12433;SDS011;6281;49.038;8.372;2023-08-06T14:37:37;1.43;;;0.57;;
12433;SDS011;6281;49.038;8.372;2023-08-06T14:40:06;0.50;;;0.37;;
12433;SDS011;6281;49.038;8.372;2023-08-06T14:42:35;0.90;;;0.63;;
12433;SDS011;6281;49.038;8.372;2023-08-06T14:45:03;1.37;;;0.70;;
12433;SDS011;6281;49.038;8.372;2023-08-06T14:47:31;0.40;;;0.33;;
12433;SDS011;6281;49.038;8.372;2023-08-06T14:49:58;1.00;;;0.57;;
12433;SDS011;6281;49.038;8.372;2023-08-06T14:52:25;0.53;;;0.40;;
12433;SDS011;6281;49.038;8.372;2023-08-06T14:54:52;0.40;;;0.37;;
12433;SDS011;6281;49.038;8.372;2023-08-06T14:57:20;0.73;;;0.60;;
12433;SDS011;6281;49.038;8.372;2023-08-06T14:59:54;0.40;;;0.40;;
12433;SDS011;6281;49.038;8.372;2023-08-06T15:04:57;0.63;;;0.40;;
12433;SDS011;6281;49.038;8.372;2023-08-06T15:07:24;0.73;;;0.50;;
12433;SDS011;6281;49.038;8.372;2023-08-06T15:09:53;0.87;;;0.50;;
12433;SDS011;6281;49.038;8.372;2023-08-06T15:12:20;0.40;;;0.40;;
12433;SDS011;6281;49.038;8.372;2023-08-06T15:14:48;0.60;;;0.60;;
12433;SDS011;6281;49.038;8.372;2023-08-06T15:17:16;0.90;;;0.50;;
12433;SDS011;6281;49.038;8.372;2023-08-06T15:19:43;1.43;;;0.80;;
12433;SDS011;6281;49.038;8.372;2023-08-06T15:22:10;1.50;;;0.50;;
12433;SDS011;6281;49.038;8.372;2023-08-06T15:24:37;1.03;;;0.63;;
12433;SDS011;6281;49.038;8.372;2023-08-06T15:27:07;0.77;;;0.50;;